createdAt,value
2023-04-02T00:00:17.991Z,55.85
2023-04-02T00:05:31.726Z,56.84
2023-04-02T00:10:38.836Z,57.35
2023-04-02T00:15:45.027Z,56.64
2023-04-02T00:20:52.216Z,56.28
2023-04-02T00:25:56.372Z,56.85
2023-04-02T00:31:01.128Z,55.97
2023-04-02T00:36:08.440Z,56.06
2023-04-02T00:41:17.449Z,55.46
2023-04-02T00:46:24.233Z,57.03
2023-04-02T00:51:30.702Z,57.75
2023-04-02T00:56:41.228Z,57.44
2023-04-02T01:01:44.815Z,55.88
2023-04-02T01:06:53.449Z,55.50
2023-04-02T01:12:20.688Z,56.75
2023-04-02T01:17:39.853Z,54.54
2023-04-02T01:22:49.553Z,55.73
2023-04-02T01:28:04.863Z,55.24
2023-04-02T01:33:09.168Z,55.40
2023-04-02T01:38:18.859Z,55.40
2023-04-02T01:43:29.454Z,56.40
2023-04-02T01:48:33.686Z,55.93
2023-04-02T01:53:36.470Z,55.06
2023-04-02T01:58:39.582Z,55.11
2023-04-02T02:03:45.244Z,53.95
2023-04-02T02:08:53.494Z,54.09
2023-04-02T02:13:58.886Z,54.01
2023-04-02T02:19:05.469Z,54.54
2023-04-02T02:24:16.224Z,54.71
2023-04-02T02:29:21.830Z,54.32
2023-04-02T02:34:32.673Z,54.46
2023-04-02T02:39:39.333Z,54.33
2023-04-02T02:44:47.580Z,54.57
2023-04-02T02:49:53.547Z,54.57
2023-04-02T02:55:02.610Z,53.92
2023-04-02T03:00:19.522Z,54.36
2023-04-02T03:05:27.768Z,53.69
2023-04-02T03:10:40.383Z,53.86
2023-04-02T03:15:52.421Z,53.24
2023-04-02T03:21:01.631Z,54.15
2023-04-02T03:26:09.715Z,53.71
2023-04-02T03:31:18.602Z,54.51
2023-04-02T03:36:29.473Z,54.79
2023-04-02T03:41:40.322Z,54.44
2023-04-02T03:46:47.185Z,55.51
2023-04-02T03:51:58.571Z,55.07
2023-04-02T03:57:02.275Z,54.66
2023-04-02T04:02:16.527Z,55.22
2023-04-02T04:07:29.846Z,55.10
2023-04-02T04:12:35.763Z,55.35
2023-04-02T04:17:54.724Z,54.56
2023-04-02T04:23:18.587Z,55.59
2023-04-02T04:28:27.668Z,56.43
2023-04-02T04:33:40.249Z,55.21
2023-04-02T04:38:55.477Z,56.48
2023-04-02T04:44:05.785Z,56.56
2023-04-02T04:49:13.245Z,55.05
2023-04-02T04:54:18.568Z,54.48
2023-04-02T04:59:30.992Z,54.22
2023-04-02T05:04:36.934Z,54.11
2023-04-02T05:09:47.014Z,52.93
2023-04-02T05:14:57.629Z,53.69
2023-04-02T05:20:08.086Z,51.78
2023-04-02T05:25:20.299Z,52.01
2023-04-02T05:30:47.083Z,50.77
2023-04-02T05:35:58.499Z,52.15
2023-04-02T05:41:06.555Z,51.74
2023-04-02T05:46:17.544Z,52.53
2023-04-02T05:51:25.753Z,51.80
2023-04-02T05:56:35.940Z,51.92
2023-04-02T06:01:45.419Z,50.19
2023-04-02T06:07:06.528Z,49.85
2023-04-02T06:12:26.424Z,49.71
2023-04-02T06:17:30.698Z,47.39
2023-04-02T06:22:38.390Z,44.47
2023-04-02T06:27:46.781Z,44.56
2023-04-02T06:32:55.962Z,43.41
2023-04-02T06:38:03.720Z,39.22
2023-04-02T06:43:17.577Z,35.80
2023-04-02T06:48:40.308Z,29.94
2023-04-02T06:53:46.611Z,30.76
2023-04-02T06:58:52.970Z,34.64
2023-04-02T07:03:57.582Z,40.02
2023-04-02T07:09:09.148Z,40.38
2023-04-02T07:14:16.729Z,40.79
2023-04-02T07:19:23.206Z,40.96
2023-04-02T07:24:30.553Z,39.12
2023-04-02T07:29:34.678Z,37.20
2023-04-02T07:34:37.782Z,35.30
2023-04-02T07:39:40.821Z,35.21
2023-04-02T07:44:45.209Z,38.87
2023-04-02T07:49:48.027Z,38.50
2023-04-02T07:54:51.226Z,37.03
2023-04-02T07:59:56.602Z,43.40
2023-04-02T08:04:59.412Z,45.34
2023-04-02T08:10:02.427Z,43.99
2023-04-02T08:15:08.010Z,44.42
2023-04-02T08:20:17.973Z,45.06
2023-04-02T08:25:20.763Z,44.53
2023-04-02T08:30:24.954Z,45.28
2023-04-02T08:35:27.822Z,45.32
2023-04-02T08:40:36.389Z,44.44
2023-04-02T08:45:48.300Z,42.05
2023-04-02T08:50:52.207Z,41.60
2023-04-02T08:56:05.737Z,41.64
2023-04-02T09:01:18.501Z,40.03
2023-04-02T09:06:22.613Z,42.57
2023-04-02T09:11:28.772Z,42.54
2023-04-02T09:16:45.120Z,42.18
2023-04-02T09:22:02.375Z,41.04
2023-04-02T09:27:05.642Z,40.97
2023-04-02T09:32:22.706Z,40.00
2023-04-02T09:37:25.488Z,40.85
2023-04-02T09:42:38.203Z,40.41
2023-04-02T09:47:42.679Z,40.65
2023-04-02T09:52:45.548Z,41.76
2023-04-02T09:57:49.720Z,40.64
2023-04-02T10:03:06.116Z,41.59
2023-04-02T10:08:17.772Z,41.35
2023-04-02T10:13:25.535Z,40.64
2023-04-02T10:18:42.771Z,41.10
2023-04-02T10:23:46.043Z,38.55
2023-04-02T10:29:06.702Z,37.73
2023-04-02T10:34:16.468Z,36.46
2023-04-02T10:39:22.744Z,36.76
2023-04-02T10:44:43.186Z,38.26
2023-04-02T10:49:54.910Z,38.95
2023-04-02T10:55:03.028Z,38.59
2023-04-02T11:00:22.272Z,38.82
2023-04-02T11:05:37.139Z,38.53
2023-04-02T11:10:46.283Z,37.35
2023-04-02T11:15:49.303Z,37.40
2023-04-02T11:21:03.543Z,38.22
2023-04-02T11:26:33.725Z,37.74
2023-04-02T11:31:36.958Z,37.79
2023-04-02T11:37:04.061Z,38.22
2023-04-02T11:42:24.903Z,36.62
2023-04-02T11:47:28.656Z,37.87
2023-04-02T11:52:37.688Z,36.82
2023-04-02T11:58:06.900Z,36.63
2023-04-02T12:03:32.084Z,37.16
2023-04-02T12:08:57.208Z,36.79
2023-04-02T12:14:01.448Z,36.65
2023-04-02T12:19:10.415Z,37.10
2023-04-02T12:24:22.139Z,37.75
2023-04-02T12:29:26.525Z,36.44
2023-04-02T12:34:31.378Z,35.72
2023-04-02T12:39:37.285Z,36.88
2023-04-02T12:44:50.057Z,37.92
2023-04-02T12:49:54.194Z,37.14
2023-04-02T12:55:00.441Z,38.84
2023-04-02T13:00:25.568Z,38.48
2023-04-02T13:05:37.272Z,38.82
2023-04-02T13:10:41.830Z,39.27
2023-04-02T13:15:44.736Z,39.48
2023-04-02T13:20:57.345Z,40.05
2023-04-02T13:26:03.913Z,39.04
2023-04-02T13:31:07.268Z,39.86
2023-04-02T13:36:13.777Z,39.60
2023-04-02T13:41:23.699Z,40.34
2023-04-02T13:46:28.449Z,39.33
2023-04-02T13:51:37.232Z,38.76
2023-04-02T13:56:41.447Z,40.23
2023-04-02T14:01:47.448Z,38.50
2023-04-02T14:07:25.979Z,39.57
2023-04-02T14:12:49.670Z,39.79
2023-04-02T14:18:05.794Z,39.08
2023-04-02T14:23:23.502Z,39.35
2023-04-02T14:28:40.360Z,40.73
2023-04-02T14:33:50.432Z,42.01
2023-04-02T14:38:59.088Z,42.21
2023-04-02T14:44:07.258Z,41.21
2023-04-02T14:49:23.921Z,41.41
2023-04-02T14:54:34.065Z,41.72
2023-04-02T14:59:43.931Z,42.61
2023-04-02T15:04:59.494Z,41.49
2023-04-02T15:10:11.704Z,42.32
2023-04-02T15:15:33.097Z,42.92
2023-04-02T15:20:53.005Z,43.22
2023-04-02T15:26:04.385Z,42.72
2023-04-02T15:31:14.268Z,42.99
2023-04-02T15:36:45.559Z,43.59
2023-04-02T15:42:03.511Z,43.83
2023-04-02T15:47:15.298Z,42.20
2023-04-02T15:52:26.664Z,42.83
2023-04-02T15:57:46.734Z,44.60
2023-04-02T16:03:17.346Z,43.08
2023-04-02T16:08:33.758Z,43.61
2023-04-02T16:13:38.244Z,43.34
2023-04-02T16:18:51.155Z,43.26
2023-04-02T16:23:54.336Z,43.07
2023-04-02T16:29:10.033Z,43.54
2023-04-02T16:34:17.807Z,44.00
2023-04-02T16:39:31.157Z,43.58
2023-04-02T16:44:45.661Z,42.86
2023-04-02T16:50:02.418Z,43.34
2023-04-02T16:55:23.495Z,42.54
2023-04-02T17:00:33.404Z,43.16
2023-04-02T17:05:54.398Z,43.45
2023-04-02T17:11:00.790Z,42.85
2023-04-02T17:16:10.824Z,41.86
2023-04-02T17:21:19.522Z,42.17
2023-04-02T17:26:24.454Z,42.41
2023-04-02T17:31:34.081Z,42.54
2023-04-02T17:36:48.380Z,42.96
2023-04-02T17:41:57.880Z,43.61
2023-04-02T17:47:09.196Z,44.07
2023-04-02T17:52:19.926Z,45.01
2023-04-02T17:57:47.280Z,44.61
2023-04-02T18:03:08.580Z,45.31
2023-04-02T18:08:22.613Z,46.09
2023-04-02T18:13:35.580Z,46.04
2023-04-02T18:19:03.414Z,45.34
2023-04-02T18:24:29.245Z,46.51
2023-04-02T18:29:42.246Z,46.59
2023-04-02T18:35:15.229Z,45.95
2023-04-02T18:40:38.619Z,46.00
2023-04-02T18:45:56.217Z,45.58
2023-04-02T18:51:01.300Z,46.64
2023-04-02T18:56:12.076Z,46.31
2023-04-02T19:01:19.393Z,46.51
2023-04-02T19:06:27.054Z,45.92
2023-04-02T19:11:31.530Z,45.99
2023-04-02T19:17:06.362Z,46.56
2023-04-02T19:22:21.924Z,46.38
2023-04-02T19:27:32.834Z,47.04
2023-04-02T19:32:46.217Z,47.29
2023-04-02T19:37:57.094Z,46.61
2023-04-02T19:43:01.353Z,47.09
2023-04-02T19:48:12.424Z,48.01
2023-04-02T19:53:16.093Z,48.92
2023-04-02T19:58:28.370Z,49.32
2023-04-02T20:03:31.426Z,49.19
2023-04-02T20:08:36.114Z,50.00
2023-04-02T20:13:40.375Z,49.88
2023-04-02T20:18:43.978Z,50.08
2023-04-02T20:23:46.898Z,50.30
2023-04-02T20:28:51.335Z,50.57
2023-04-02T20:33:56.547Z,50.52
2023-04-02T20:38:59.723Z,50.01
2023-04-02T20:44:04.183Z,51.02
2023-04-02T20:49:07.168Z,51.78
2023-04-02T20:54:09.936Z,51.61
2023-04-02T20:59:14.141Z,52.11
2023-04-02T21:04:17.424Z,52.09
2023-04-02T21:09:21.329Z,52.00
2023-04-02T21:14:25.455Z,51.64
2023-04-02T21:19:28.291Z,51.58
2023-04-02T21:24:31.223Z,52.64
2023-04-02T21:29:35.485Z,52.80
2023-04-02T21:34:38.306Z,52.94
2023-04-02T21:39:41.508Z,53.48
2023-04-02T21:44:45.697Z,52.97
2023-04-02T21:49:48.473Z,52.86
2023-04-02T21:54:51.279Z,52.87
2023-04-02T21:59:56.972Z,53.21
2023-04-02T22:04:59.805Z,52.36
2023-04-02T22:10:02.633Z,52.28
2023-04-02T22:15:07.727Z,51.98
2023-04-02T22:20:11.460Z,52.69
2023-04-02T22:25:14.286Z,51.87
2023-04-02T22:30:18.782Z,52.46
2023-04-02T22:35:21.524Z,53.64
2023-04-02T22:40:24.325Z,54.21
2023-04-02T22:45:28.758Z,54.62
2023-04-02T22:50:31.559Z,54.88
2023-04-02T22:55:34.268Z,55.09
2023-04-02T23:00:39.257Z,54.09
2023-04-02T23:05:42.381Z,55.76
2023-04-02T23:10:45.187Z,54.71
2023-04-02T23:15:49.348Z,55.36
2023-04-02T23:20:52.165Z,54.80
2023-04-02T23:26:04.369Z,55.27
2023-04-02T23:31:15.785Z,56.70
2023-04-02T23:36:22.430Z,57.09
2023-04-02T23:41:26.795Z,57.35
2023-04-02T23:46:32.228Z,57.89
2023-04-02T23:51:35.024Z,57.12
2023-04-02T23:56:37.821Z,57.53
